createdAt,value
2018-08-22T00:00:56.243Z,101580.88
2018-08-22T00:03:24.784Z,101575.67
2018-08-22T00:05:53.299Z,101576.21
2018-08-22T00:08:53.451Z,101577.05
2018-08-22T00:11:21.972Z,101569.67
2018-08-22T00:13:50.449Z,101571.48
2018-08-22T00:16:18.959Z,101575.84
2018-08-22T00:18:47.504Z,101567.34
2018-08-22T00:21:16.103Z,101570.38
2018-08-22T00:23:44.748Z,101570.00
2018-08-22T00:26:13.270Z,101565.08
2018-08-22T00:28:41.772Z,101560.64
2018-08-22T00:31:10.564Z,101559.77
2018-08-22T00:33:39.152Z,101566.03
2018-08-22T00:36:14.399Z,101561.56
2018-08-22T00:38:42.899Z,101559.66
2018-08-22T00:41:11.393Z,101557.20
2018-08-22T00:43:40.019Z,101562.36
2018-08-22T00:46:08.515Z,101566.08
2018-08-22T00:48:37.010Z,101560.58
2018-08-22T00:51:05.524Z,101561.91
2018-08-22T00:53:34.110Z,101545.72
2018-08-22T00:56:03.504Z,101551.67
2018-08-22T00:58:32.025Z,101544.55
2018-08-22T01:01:00.588Z,101550.80
2018-08-22T01:03:29.224Z,101550.99
2018-08-22T01:05:57.768Z,101555.39
2018-08-22T01:08:26.390Z,101548.91
2018-08-22T01:10:54.916Z,101546.33
2018-08-22T01:13:23.467Z,101543.59
2018-08-22T01:15:51.973Z,101540.03
2018-08-22T01:18:20.495Z,101538.85
2018-08-22T01:20:49.022Z,101537.38
2018-08-22T01:23:17.548Z,101536.50
2018-08-22T01:25:46.034Z,101541.39
2018-08-22T01:28:14.551Z,101541.66
2018-08-22T01:30:43.038Z,101540.33
2018-08-22T01:33:11.509Z,101538.36
2018-08-22T01:35:40.049Z,101537.00
2018-08-22T01:38:08.561Z,101536.69
2018-08-22T01:40:37.141Z,101533.12
2018-08-22T01:43:05.721Z,101529.25
2018-08-22T01:45:34.346Z,101525.12
2018-08-22T01:48:03.132Z,101531.64
2018-08-22T01:50:31.768Z,101531.29
2018-08-22T01:53:00.287Z,101532.39
2018-08-22T01:55:29.800Z,101527.12
2018-08-22T01:57:58.441Z,101527.69
2018-08-22T02:00:27.064Z,101526.32
2018-08-22T02:02:56.411Z,101525.45
2018-08-22T02:05:24.979Z,101522.50
2018-08-22T02:07:53.517Z,101520.48
2018-08-22T02:10:22.439Z,101515.22
2018-08-22T02:12:50.910Z,101513.55
2018-08-22T02:15:19.564Z,101514.03
2018-08-22T02:17:48.136Z,101510.50
2018-08-22T02:20:16.624Z,101509.62
2018-08-22T02:22:45.139Z,101509.86
2018-08-22T02:25:13.750Z,101506.52
2018-08-22T02:27:43.130Z,101504.13
2018-08-22T02:30:11.599Z,101506.02
2018-08-22T02:32:40.141Z,101507.00
2018-08-22T02:35:08.916Z,101498.06
2018-08-22T02:37:37.401Z,101501.63
2018-08-22T02:40:06.057Z,101500.75
2018-08-22T02:42:34.606Z,101493.44
2018-08-22T02:45:03.502Z,101502.65
2018-08-22T02:47:33.996Z,101499.00
2018-08-22T02:50:02.480Z,101497.06
2018-08-22T02:52:30.992Z,101505.47
2018-08-22T02:55:01.638Z,101496.38
2018-08-22T02:57:30.163Z,101499.70
2018-08-22T02:59:58.714Z,101504.59
2018-08-22T03:02:27.186Z,101501.83
2018-08-22T03:04:55.728Z,101498.22
2018-08-22T03:07:24.235Z,101489.99
2018-08-22T03:09:52.744Z,101500.11
2018-08-22T03:12:21.918Z,101492.00
2018-08-22T03:14:50.411Z,101490.25
2018-08-22T03:17:20.015Z,101492.67
2018-08-22T03:19:48.563Z,101493.25
2018-08-22T03:22:17.262Z,101489.59
2018-08-22T03:24:45.942Z,101490.61
2018-08-22T03:27:15.866Z,101485.59
2018-08-22T03:29:44.494Z,101479.56
2018-08-22T03:32:13.102Z,101475.91
2018-08-22T03:34:41.701Z,101475.34
2018-08-22T03:37:10.278Z,101468.22
2018-08-22T03:39:39.196Z,101468.70
2018-08-22T03:42:07.905Z,101472.75
2018-08-22T03:44:36.506Z,101465.40
2018-08-22T03:47:05.022Z,101470.90
2018-08-22T03:49:33.644Z,101465.98
2018-08-22T03:52:02.632Z,101465.09
2018-08-22T03:54:31.148Z,101470.50
2018-08-22T03:56:59.635Z,101469.72
2018-08-22T03:59:28.140Z,101465.88
2018-08-22T04:01:56.638Z,101468.13
2018-08-22T04:04:25.166Z,101464.03
2018-08-22T04:06:53.708Z,101466.64
2018-08-22T04:09:22.182Z,101461.23
2018-08-22T04:11:50.681Z,101457.30
2018-08-22T04:14:19.362Z,101463.29
2018-08-22T04:16:47.832Z,101458.77
2018-08-22T04:19:16.308Z,101464.22
2018-08-22T04:21:44.841Z,101461.23
2018-08-22T04:24:13.377Z,101457.98
2018-08-22T04:26:41.855Z,101456.04
2018-08-22T04:29:10.455Z,101459.25
2018-08-22T04:31:38.969Z,101459.42
2018-08-22T04:34:07.446Z,101461.62
2018-08-22T04:36:35.968Z,101460.70
2018-08-22T04:39:05.875Z,101459.34
2018-08-22T04:41:34.405Z,101461.58
2018-08-22T04:44:02.931Z,101462.77
2018-08-22T04:46:31.419Z,101458.15
2018-08-22T04:48:59.935Z,101466.38
2018-08-22T04:51:28.408Z,101463.64
2018-08-22T04:53:56.928Z,101463.12
2018-08-22T04:56:25.690Z,101469.19
2018-08-22T04:58:54.173Z,101471.69
2018-08-22T05:01:22.707Z,101474.06
2018-08-22T05:03:52.111Z,101470.06
2018-08-22T05:06:20.613Z,101469.30
2018-08-22T05:08:49.124Z,101467.20
2018-08-22T05:11:17.649Z,101466.48
2018-08-22T05:13:46.193Z,101467.44
2018-08-22T05:16:14.672Z,101464.49
2018-08-22T05:18:43.188Z,101465.97
2018-08-22T05:21:11.692Z,101457.37
2018-08-22T05:23:40.220Z,101462.98
2018-08-22T05:26:08.754Z,101463.39
2018-08-22T05:28:37.401Z,101461.91
2018-08-22T05:31:05.879Z,101461.75
2018-08-22T05:33:34.460Z,101462.46
2018-08-22T05:36:03.032Z,101463.94
2018-08-22T05:38:31.544Z,101459.17
2018-08-22T05:41:00.196Z,101460.70
2018-08-22T05:43:28.713Z,101454.83
2018-08-22T05:45:57.240Z,101459.11
2018-08-22T05:48:25.711Z,101455.73
2018-08-22T05:50:54.405Z,101462.47
2018-08-22T05:53:22.904Z,101454.29
2018-08-22T05:55:51.850Z,101461.84
2018-08-22T05:58:20.404Z,101459.59
2018-08-22T06:00:48.957Z,101463.91
2018-08-22T06:03:18.015Z,101461.23
2018-08-22T06:05:46.708Z,101462.94
2018-08-22T06:08:15.262Z,101457.91
2018-08-22T06:10:43.826Z,101458.31
2018-08-22T06:13:12.417Z,101460.59
2018-08-22T06:15:40.902Z,101454.91
2018-08-22T06:18:09.490Z,101456.59
2018-08-22T06:20:38.018Z,101451.22
2018-08-22T06:23:06.752Z,101456.58
2018-08-22T06:25:35.476Z,101450.63
2018-08-22T06:28:04.059Z,101446.27
2018-08-22T06:30:33.709Z,101449.59
2018-08-22T06:33:02.242Z,101448.80
2018-08-22T06:35:30.763Z,101445.52
2018-08-22T06:37:59.235Z,101444.99
2018-08-22T06:40:27.737Z,101449.11
2018-08-22T06:42:56.277Z,101444.21
2018-08-22T06:45:24.813Z,101447.50
2018-08-22T06:47:53.366Z,101437.87
2018-08-22T06:50:21.930Z,101435.41
2018-08-22T06:52:50.697Z,101437.33
2018-08-22T06:55:19.192Z,101435.09
2018-08-22T06:57:47.757Z,101427.92
2018-08-22T07:00:16.288Z,101434.23
2018-08-22T07:02:44.884Z,101433.95
2018-08-22T07:05:13.415Z,101437.25
2018-08-22T07:07:41.893Z,101427.87
2018-08-22T07:10:10.589Z,101434.41
2018-08-22T07:12:39.118Z,101438.21
2018-08-22T07:15:07.983Z,101438.14
2018-08-22T07:17:36.494Z,101440.30
2018-08-22T07:20:06.040Z,101430.81
2018-08-22T07:22:34.781Z,101429.42
2018-08-22T07:25:03.805Z,101433.55
2018-08-22T07:27:32.286Z,101437.61
2018-08-22T07:30:01.571Z,101429.56
2018-08-22T07:32:30.255Z,101433.64
2018-08-22T07:34:58.901Z,101434.36
2018-08-22T07:37:27.498Z,101431.32
2018-08-22T07:39:56.075Z,101428.97
2018-08-22T07:42:24.604Z,101433.89
2018-08-22T07:44:53.137Z,101435.72
2018-08-22T07:47:21.975Z,101437.68
2018-08-22T07:49:50.496Z,101431.75
2018-08-22T07:52:19.296Z,101435.39
2018-08-22T07:54:48.336Z,101431.81
2018-08-22T07:57:18.245Z,101432.97
2018-08-22T07:59:46.813Z,101427.91
2018-08-22T08:02:15.314Z,101429.85
2018-08-22T08:04:43.837Z,101429.32
2018-08-22T08:07:12.430Z,101434.51
2018-08-22T08:09:40.957Z,101437.97
2018-08-22T08:12:09.560Z,101430.10
2018-08-22T08:14:38.053Z,101432.47
2018-08-22T08:17:06.676Z,101429.50
2018-08-22T08:19:35.337Z,101429.44
2018-08-22T08:22:03.912Z,101427.77
2018-08-22T08:24:32.410Z,101435.23
2018-08-22T08:27:00.997Z,101440.57
2018-08-22T08:29:29.583Z,101434.42
2018-08-22T08:31:58.158Z,101427.55
2018-08-22T08:34:26.648Z,101422.77
2018-08-22T08:36:55.471Z,101426.39
2018-08-22T08:39:23.989Z,101426.00
2018-08-22T08:41:52.510Z,101425.69
2018-08-22T08:44:21.225Z,101415.76
2018-08-22T08:46:49.838Z,101420.78
2018-08-22T08:49:18.353Z,101419.29
2018-08-22T08:51:56.741Z,101414.00
2018-08-22T08:54:25.247Z,101419.17
2018-08-22T08:56:53.880Z,101410.89
2018-08-22T08:59:22.617Z,101405.25
2018-08-22T09:01:51.250Z,101414.88
2018-08-22T09:04:19.780Z,101402.58
2018-08-22T09:06:49.212Z,101410.05
2018-08-22T09:09:17.841Z,101406.99
2018-08-22T09:11:51.633Z,101405.00
2018-08-22T09:14:20.192Z,101408.70
2018-08-22T09:16:48.969Z,101405.05
2018-08-22T09:19:17.454Z,101405.25
2018-08-22T09:21:45.955Z,101405.02
2018-08-22T09:24:14.783Z,101401.92
2018-08-22T09:26:43.575Z,101394.73
2018-08-22T09:29:12.482Z,101386.91
2018-08-22T09:31:41.240Z,101387.91
2018-08-22T09:34:09.825Z,101386.23
2018-08-22T09:36:38.300Z,101385.83
2018-08-22T09:39:10.065Z,101390.52
2018-08-22T09:41:38.581Z,101386.86
2018-08-22T09:44:07.779Z,101389.83
2018-08-22T09:46:36.817Z,101386.91
2018-08-22T09:49:05.465Z,101382.48
2018-08-22T09:51:33.969Z,101382.19
2018-08-22T09:54:02.523Z,101382.16
2018-08-22T09:56:31.023Z,101377.97
2018-08-22T09:58:59.674Z,101375.53
2018-08-22T10:01:34.696Z,101373.98
2018-08-22T10:04:03.317Z,101372.20
2018-08-22T10:06:38.849Z,101365.72
2018-08-22T10:09:16.736Z,101363.08
2018-08-22T10:11:45.414Z,101358.14
2018-08-22T10:14:14.404Z,101360.80
2018-08-22T10:16:42.956Z,101359.84
2018-08-22T10:19:11.601Z,101347.28
2018-08-22T10:21:40.153Z,101348.71
2018-08-22T10:24:08.985Z,101347.47
2018-08-22T10:26:37.512Z,101339.47
2018-08-22T10:29:06.012Z,101334.73
2018-08-22T10:31:34.576Z,101335.31
2018-08-22T10:34:03.225Z,101331.38
2018-08-22T10:36:31.776Z,101339.56
2018-08-22T10:39:00.313Z,101333.07
2018-08-22T10:41:28.805Z,101327.92
2018-08-22T10:43:57.297Z,101328.34
2018-08-22T10:46:25.889Z,101327.45
2018-08-22T10:48:54.393Z,101322.97
2018-08-22T10:51:22.867Z,101323.50
2018-08-22T10:53:51.411Z,101328.90
2018-08-22T10:56:19.964Z,101326.44
2018-08-22T10:58:48.510Z,101321.02
2018-08-22T11:01:17.209Z,101326.68
2018-08-22T11:03:45.695Z,101329.54
2018-08-22T11:06:14.238Z,101327.35
2018-08-22T11:08:42.836Z,101331.06
2018-08-22T11:11:11.377Z,101329.00
2018-08-22T11:13:39.965Z,101327.05
2018-08-22T11:16:08.640Z,101324.22
2018-08-22T11:18:37.607Z,101326.90
2018-08-22T11:21:17.457Z,101325.80
2018-08-22T11:23:57.166Z,101312.64
2018-08-22T11:26:36.834Z,101325.40
2018-08-22T11:29:16.664Z,101314.16
2018-08-22T11:31:56.300Z,101323.82
2018-08-22T11:34:36.224Z,101317.59
2018-08-22T11:37:07.658Z,101320.55
2018-08-22T11:39:36.167Z,101313.45
2018-08-22T11:42:05.160Z,101313.70
2018-08-22T11:44:33.955Z,101306.44
2018-08-22T11:47:02.604Z,101306.59
2018-08-22T11:49:31.781Z,101309.27
2018-08-22T11:52:00.660Z,101304.57
2018-08-22T11:54:29.707Z,101304.70
2018-08-22T11:56:58.256Z,101300.75
2018-08-22T11:59:26.774Z,101299.38
2018-08-22T12:01:55.468Z,101296.57
2018-08-22T12:04:23.932Z,101295.42
2018-08-22T12:06:52.757Z,101296.72
2018-08-22T12:09:21.428Z,101293.65
2018-08-22T12:11:49.929Z,101294.87
2018-08-22T12:14:19.375Z,101296.00
2018-08-22T12:16:48.519Z,101292.28
2018-08-22T12:19:18.103Z,101294.08
2018-08-22T12:21:47.134Z,101293.48
2018-08-22T12:24:16.419Z,101285.94
2018-08-22T12:26:46.866Z,101284.92
2018-08-22T12:29:15.924Z,101287.45
2018-08-22T12:31:44.892Z,101287.36
2018-08-22T12:34:14.024Z,101275.52
2018-08-22T12:36:42.565Z,101284.44
2018-08-22T12:39:11.132Z,101280.87
2018-08-22T12:41:40.317Z,101275.44
2018-08-22T12:44:10.246Z,101271.63
2018-08-22T12:46:38.773Z,101266.50
2018-08-22T12:49:07.388Z,101267.45
2018-08-22T12:51:36.022Z,101264.04
2018-08-22T12:54:04.586Z,101257.93
2018-08-22T12:56:33.238Z,101259.66
2018-08-22T12:59:01.776Z,101258.14
2018-08-22T13:01:30.280Z,101261.55
2018-08-22T13:03:58.808Z,101259.69
2018-08-22T13:06:27.380Z,101256.70
2018-08-22T13:08:55.924Z,101265.02
2018-08-22T13:11:24.577Z,101256.84
2018-08-22T13:13:53.164Z,101258.53
2018-08-22T13:16:21.757Z,101251.43
2018-08-22T13:18:50.307Z,101246.16
2018-08-22T13:21:18.804Z,101251.09
2018-08-22T13:23:47.328Z,101241.77
2018-08-22T13:26:16.078Z,101243.91
2018-08-22T13:28:44.649Z,101240.52
2018-08-22T13:31:13.226Z,101235.78
2018-08-22T13:33:41.834Z,101237.68
2018-08-22T13:36:10.438Z,101242.28
2018-08-22T13:38:39.183Z,101235.16
2018-08-22T13:41:07.725Z,101239.91
2018-08-22T13:43:36.309Z,101238.66
2018-08-22T13:46:04.870Z,101238.42
2018-08-22T13:48:33.392Z,101242.02
2018-08-22T13:51:01.932Z,101239.36
2018-08-22T13:53:30.430Z,101237.61
2018-08-22T13:55:58.935Z,101234.91
2018-08-22T13:58:27.520Z,101233.71
2018-08-22T14:00:56.047Z,101224.31
2018-08-22T14:03:24.690Z,101233.71
2018-08-22T14:05:53.389Z,101230.56
2018-08-22T14:08:22.324Z,101225.39
2018-08-22T14:10:50.821Z,101228.59
2018-08-22T14:13:19.352Z,101227.21
2018-08-22T14:15:48.066Z,101222.19
2018-08-22T14:18:17.107Z,101225.61
2018-08-22T14:20:45.697Z,101218.19
2018-08-22T14:23:14.212Z,101217.30
2018-08-22T14:25:42.751Z,101218.14
2018-08-22T14:28:11.349Z,101213.26
2018-08-22T14:30:39.979Z,101217.09
2018-08-22T14:33:08.644Z,101219.45
2018-08-22T14:35:37.483Z,101220.34
2018-08-22T14:38:06.336Z,101225.30
2018-08-22T14:40:34.970Z,101219.97
2018-08-22T14:43:03.481Z,101223.65
2018-08-22T14:45:32.032Z,101222.72
2018-08-22T14:48:00.590Z,101216.92
2018-08-22T14:50:29.186Z,101208.61
2018-08-22T14:52:57.699Z,101210.41
2018-08-22T14:55:26.245Z,101200.00
2018-08-22T14:57:54.803Z,101193.73
2018-08-22T15:00:23.320Z,101200.08
2018-08-22T15:02:52.232Z,101200.52
2018-08-22T15:05:20.740Z,101200.91
2018-08-22T15:07:49.251Z,101201.94
2018-08-22T15:10:18.804Z,101204.02
2018-08-22T15:12:48.310Z,101196.93
2018-08-22T15:15:16.742Z,101194.41
2018-08-22T15:17:45.571Z,101192.77
2018-08-22T15:20:14.086Z,101196.58
2018-08-22T15:22:42.618Z,101196.88
2018-08-22T15:25:11.546Z,101202.08
2018-08-22T15:27:40.044Z,101204.72
2018-08-22T15:30:09.116Z,101196.39
2018-08-22T15:32:37.634Z,101194.67
2018-08-22T15:35:06.161Z,101192.66
2018-08-22T15:37:34.688Z,101187.37
2018-08-22T15:40:03.400Z,101196.06
2018-08-22T15:42:32.031Z,101193.05
2018-08-22T15:45:00.681Z,101187.97
2018-08-22T15:47:29.338Z,101193.06
2018-08-22T15:49:57.881Z,101197.17
2018-08-22T15:52:26.494Z,101195.77
2018-08-22T15:55:06.359Z,101183.92
2018-08-22T15:57:48.998Z,101189.84
2018-08-22T16:00:27.503Z,101193.34
2018-08-22T16:02:56.172Z,101185.81
2018-08-22T16:05:24.768Z,101185.27
2018-08-22T16:07:53.323Z,101190.94
2018-08-22T16:10:22.032Z,101180.45
2018-08-22T16:12:50.629Z,101186.56
2018-08-22T16:15:19.142Z,101184.84
2018-08-22T16:17:53.073Z,101181.09
2018-08-22T16:20:24.199Z,101183.86
2018-08-22T16:22:52.940Z,101179.42
2018-08-22T16:25:28.988Z,101178.03
2018-08-22T16:27:57.759Z,101173.33
2018-08-22T16:30:26.395Z,101170.70
2018-08-22T16:32:56.657Z,101173.91
2018-08-22T16:35:25.265Z,101175.48
2018-08-22T16:38:01.450Z,101172.92
2018-08-22T16:40:34.132Z,101174.18
2018-08-22T16:43:03.045Z,101167.83
2018-08-22T16:45:32.433Z,101165.72
2018-08-22T16:48:00.951Z,101173.03
2018-08-22T16:50:29.844Z,101169.41
2018-08-22T16:52:58.491Z,101165.34
2018-08-22T16:55:27.032Z,101166.62
2018-08-22T16:57:55.639Z,101166.38
2018-08-22T17:00:30.493Z,101156.51
2018-08-22T17:02:59.273Z,101162.35
2018-08-22T17:05:27.833Z,101165.59
2018-08-22T17:07:56.882Z,101150.35
2018-08-22T17:10:32.915Z,101164.62
2018-08-22T17:13:01.500Z,101161.94
2018-08-22T17:15:30.027Z,101161.50
2018-08-22T17:17:58.597Z,101164.53
2018-08-22T17:20:27.192Z,101160.19
2018-08-22T17:22:55.737Z,101172.81
2018-08-22T17:25:24.221Z,101167.95
2018-08-22T17:27:52.818Z,101161.05
2018-08-22T17:30:25.782Z,101162.50
2018-08-22T17:32:54.400Z,101166.21
2018-08-22T17:35:24.770Z,101163.95
2018-08-22T17:38:00.973Z,101167.36
2018-08-22T17:40:30.635Z,101165.49
2018-08-22T17:42:59.138Z,101164.63
2018-08-22T17:45:35.144Z,101173.00
2018-08-22T17:48:04.820Z,101164.64
2018-08-22T17:50:33.462Z,101166.70
2018-08-22T17:53:06.297Z,101159.57
2018-08-22T17:55:35.023Z,101162.84
2018-08-22T17:58:03.952Z,101164.24
2018-08-22T18:00:34.819Z,101165.63
2018-08-22T18:03:03.481Z,101165.86
2018-08-22T18:05:33.692Z,101174.95
2018-08-22T18:08:04.357Z,101169.41
2018-08-22T18:10:35.802Z,101167.16
2018-08-22T18:13:16.829Z,101176.98
2018-08-22T18:15:46.117Z,101171.41
2018-08-22T18:18:14.884Z,101170.39
2018-08-22T18:20:47.117Z,101174.93
2018-08-22T18:23:16.410Z,101173.16
2018-08-22T18:25:50.305Z,101182.22
2018-08-22T18:28:20.346Z,101180.40
2018-08-22T18:30:48.917Z,101179.47
2018-08-22T18:33:17.526Z,101189.39
2018-08-22T18:35:46.812Z,101184.05
2018-08-22T18:38:15.613Z,101197.19
2018-08-22T18:40:52.029Z,101199.89
2018-08-22T18:43:20.920Z,101195.41
2018-08-22T18:45:59.737Z,101206.56
2018-08-22T18:48:28.993Z,101206.28
2018-08-22T18:50:57.495Z,101206.14
2018-08-22T18:53:26.099Z,101216.50
2018-08-22T18:56:05.893Z,101212.31
2018-08-22T18:58:34.444Z,101215.12
2018-08-22T19:01:04.503Z,101215.23
2018-08-22T19:03:33.170Z,101214.14
2018-08-22T19:06:01.709Z,101218.69
2018-08-22T19:08:30.330Z,101214.41
2018-08-22T19:10:59.074Z,101224.55
2018-08-22T19:13:27.771Z,101222.53
2018-08-22T19:15:59.843Z,101222.12
2018-08-22T19:18:28.342Z,101225.06
2018-08-22T19:20:58.698Z,101223.52
2018-08-22T19:23:27.468Z,101223.72
2018-08-22T19:25:56.773Z,101226.22
2018-08-22T19:28:25.440Z,101221.58
2018-08-22T19:30:54.113Z,101228.47
2018-08-22T19:33:24.035Z,101226.64
2018-08-22T19:35:52.829Z,101224.75
2018-08-22T19:38:23.552Z,101227.84
2018-08-22T19:40:52.571Z,101224.49
2018-08-22T19:43:21.198Z,101223.84
2018-08-22T19:45:50.082Z,101224.88
2018-08-22T19:48:18.613Z,101225.86
2018-08-22T19:50:47.464Z,101226.77
2018-08-22T19:53:15.976Z,101231.55
2018-08-22T19:55:44.551Z,101234.08
2018-08-22T19:58:15.700Z,101231.17
2018-08-22T20:00:44.228Z,101232.64
2018-08-22T20:03:15.366Z,101230.83
2018-08-22T20:05:51.050Z,101228.95
2018-08-22T20:08:23.884Z,101229.25
2018-08-22T20:10:52.366Z,101226.19
2018-08-22T20:13:20.860Z,101238.91
2018-08-22T20:15:50.059Z,101232.61
2018-08-22T20:18:19.203Z,101234.89
2018-08-22T20:20:47.672Z,101233.63
2018-08-22T20:23:16.296Z,101237.61
2018-08-22T20:25:49.245Z,101239.54
2018-08-22T20:28:17.791Z,101240.47
2018-08-22T20:30:47.511Z,101244.30
2018-08-22T20:33:16.174Z,101241.54
2018-08-22T20:35:44.671Z,101248.66
2018-08-22T20:38:13.882Z,101247.97
2018-08-22T20:40:42.436Z,101252.77
2018-08-22T20:43:16.078Z,101249.71
2018-08-22T20:45:44.719Z,101246.86
2018-08-22T20:48:14.400Z,101248.91
2018-08-22T20:50:44.841Z,101249.63
2018-08-22T20:53:19.403Z,101246.94
2018-08-22T20:55:48.268Z,101246.66
2018-08-22T20:58:20.900Z,101247.70
2018-08-22T21:00:51.217Z,101246.66
2018-08-22T21:03:23.378Z,101245.11
2018-08-22T21:05:52.043Z,101248.98
2018-08-22T21:08:20.609Z,101251.83
2018-08-22T21:10:50.208Z,101249.31
2018-08-22T21:13:23.919Z,101248.72
2018-08-22T21:15:55.881Z,101255.02
2018-08-22T21:18:28.219Z,101255.97
2018-08-22T21:21:02.078Z,101252.86
2018-08-22T21:23:32.564Z,101252.06
2018-08-22T21:26:01.069Z,101261.77
2018-08-22T21:28:33.598Z,101257.72
2018-08-22T21:31:02.469Z,101265.69
2018-08-22T21:33:31.779Z,101263.56
2018-08-22T21:36:00.291Z,101259.69
2018-08-22T21:38:28.795Z,101257.48
2018-08-22T21:40:57.295Z,101254.50
2018-08-22T21:43:28.983Z,101253.21
2018-08-22T21:46:01.155Z,101261.81
2018-08-22T21:48:32.964Z,101266.25
2018-08-22T21:51:05.530Z,101262.15
2018-08-22T21:53:38.423Z,101257.77
2018-08-22T21:56:06.986Z,101255.52
2018-08-22T21:58:37.761Z,101261.62
2018-08-22T22:01:08.775Z,101261.34
2018-08-22T22:03:37.272Z,101256.71
2018-08-22T22:06:05.814Z,101260.02
2018-08-22T22:08:34.652Z,101257.83
2018-08-22T22:11:05.063Z,101266.08
2018-08-22T22:13:33.709Z,101261.98
2018-08-22T22:16:03.904Z,101264.23
2018-08-22T22:18:33.438Z,101259.59
2018-08-22T22:21:13.441Z,101260.97
2018-08-22T22:23:45.842Z,101257.94
2018-08-22T22:26:15.420Z,101257.67
2018-08-22T22:28:44.012Z,101260.14
2018-08-22T22:31:16.480Z,101264.80
2018-08-22T22:33:51.980Z,101264.01
2018-08-22T22:36:20.624Z,101263.74
2018-08-22T22:38:49.163Z,101260.72
2018-08-22T22:41:17.702Z,101258.26
2018-08-22T22:43:46.234Z,101258.55
2018-08-22T22:46:14.876Z,101262.66
2018-08-22T22:48:44.417Z,101269.23
2018-08-22T22:51:13.033Z,101267.59
2018-08-22T22:53:41.672Z,101260.47
2018-08-22T22:56:10.372Z,101261.56
2018-08-22T22:58:38.896Z,101257.17
2018-08-22T23:01:07.857Z,101256.08
2018-08-22T23:03:36.518Z,101258.02
2018-08-22T23:06:05.010Z,101252.78
2018-08-22T23:08:33.603Z,101256.63
2018-08-22T23:11:02.449Z,101256.64
2018-08-22T23:13:30.954Z,101255.80
2018-08-22T23:15:59.594Z,101255.27
2018-08-22T23:18:28.241Z,101254.70
2018-08-22T23:20:56.810Z,101260.97
2018-08-22T23:23:29.642Z,101260.39
2018-08-22T23:26:05.658Z,101258.19
2018-08-22T23:28:34.427Z,101251.05
2018-08-22T23:31:02.953Z,101250.80
2018-08-22T23:33:31.486Z,101248.66
2018-08-22T23:36:00.022Z,101248.88
2018-08-22T23:38:32.458Z,101245.31
2018-08-22T23:41:01.545Z,101245.56
2018-08-22T23:43:38.767Z,101246.11
2018-08-22T23:46:08.220Z,101246.64
2018-08-22T23:48:37.326Z,101241.12
2018-08-22T23:51:07.404Z,101243.02
2018-08-22T23:53:44.909Z,101243.80
2018-08-22T23:56:24.153Z,101243.26
2018-08-22T23:58:53.345Z,101243.27
